createdAt,value
2023-04-09T00:03:09.467Z,10.65
2023-04-09T00:05:14.710Z,9.02
2023-04-09T00:09:24.288Z,10.93
2023-04-09T00:11:31.854Z,9.75
2023-04-09T00:13:39.551Z,9.68
2023-04-09T00:15:45.047Z,11.88
2023-04-09T00:17:49.949Z,11.60
2023-04-09T00:19:54.881Z,12.05
2023-04-09T00:21:59.767Z,11.93
2023-04-09T00:24:04.640Z,12.88
2023-04-09T00:26:09.756Z,11.85
2023-04-09T00:28:18.716Z,12.40
2023-04-09T00:30:23.771Z,11.90
2023-04-09T00:32:28.822Z,12.07
2023-04-09T00:34:34.114Z,13.65
2023-04-09T00:36:39.125Z,11.57
2023-04-09T00:38:44.123Z,13.13
2023-04-09T00:40:52.181Z,11.07
2023-04-09T00:42:57.268Z,13.30
2023-04-09T00:45:04.994Z,12.85
2023-04-09T00:47:09.881Z,13.63
2023-04-09T00:49:15.056Z,13.82
2023-04-09T00:51:21.204Z,13.95
2023-04-09T00:55:32.176Z,13.27
2023-04-09T00:57:37.708Z,14.18
2023-04-09T00:59:43.388Z,13.90
2023-04-09T01:01:50.968Z,12.98
2023-04-09T01:03:56.098Z,13.18
2023-04-09T01:06:08.814Z,12.10
2023-04-09T01:08:22.362Z,14.18
2023-04-09T01:10:32.188Z,12.35
2023-04-09T01:12:45.742Z,13.18
2023-04-09T01:14:57.725Z,11.77
2023-04-09T01:17:08.523Z,12.75
2023-04-09T01:19:27.166Z,12.20
2023-04-09T01:21:36.666Z,11.32
2023-04-09T01:23:50.927Z,12.57
2023-04-09T01:26:06.548Z,11.90
2023-04-09T01:28:29.111Z,12.85
2023-04-09T01:30:35.131Z,14.45
2023-04-09T01:32:41.947Z,12.55
2023-04-09T01:34:49.244Z,13.30
2023-04-09T01:36:58.232Z,12.27
2023-04-09T01:39:04.403Z,12.32
2023-04-09T01:41:10.765Z,10.98
2023-04-09T01:43:17.768Z,12.60
2023-04-09T01:45:26.063Z,12.95
2023-04-09T01:47:31.617Z,14.02
2023-04-09T01:49:37.110Z,13.13
2023-04-09T01:51:42.202Z,12.80
2023-04-09T01:53:47.243Z,14.63
2023-04-09T01:55:52.283Z,12.60
2023-04-09T01:57:57.185Z,11.85
2023-04-09T02:00:02.629Z,11.05
2023-04-09T02:02:31.533Z,12.50
2023-04-09T02:04:42.106Z,13.30
2023-04-09T02:06:51.517Z,12.57
2023-04-09T02:08:57.251Z,13.70
2023-04-09T02:11:07.113Z,12.02
2023-04-09T02:13:19.957Z,13.18
2023-04-09T02:15:25.268Z,12.48
2023-04-09T02:19:44.884Z,13.80
2023-04-09T02:21:49.916Z,13.90
2023-04-09T02:23:55.829Z,12.13
2023-04-09T02:26:00.844Z,13.38
2023-04-09T02:28:05.857Z,13.02
2023-04-09T02:30:12.006Z,15.27
2023-04-09T02:32:17.434Z,16.23
2023-04-09T02:36:30.103Z,16.42
2023-04-09T02:38:35.524Z,13.20
2023-04-09T02:40:40.478Z,13.32
2023-04-09T02:42:45.488Z,12.32
2023-04-09T02:44:50.577Z,13.32
2023-04-09T02:46:57.252Z,12.93
2023-04-09T02:49:02.269Z,13.27
2023-04-09T02:51:11.164Z,14.60
2023-04-09T02:53:16.170Z,14.05
2023-04-09T02:55:21.782Z,13.35
2023-04-09T02:57:26.785Z,13.32
2023-04-09T02:59:33.134Z,13.88
2023-04-09T03:01:38.601Z,13.82
2023-04-09T03:03:44.116Z,15.93
2023-04-09T03:05:49.195Z,14.25
2023-04-09T03:07:56.811Z,12.95
2023-04-09T03:10:01.885Z,14.45
2023-04-09T03:12:06.957Z,12.90
2023-04-09T03:16:16.694Z,13.52
2023-04-09T03:18:21.663Z,11.80
2023-04-09T03:20:26.540Z,15.73
2023-04-09T03:22:31.564Z,14.35
2023-04-09T03:24:39.120Z,16.08
2023-04-09T03:26:44.737Z,15.70
2023-04-09T03:28:51.888Z,13.65
2023-04-09T03:33:02.403Z,14.65
2023-04-09T03:35:11.432Z,14.32
2023-04-09T03:37:18.479Z,14.52
2023-04-09T03:39:23.522Z,15.15
2023-04-09T03:41:31.662Z,14.07
2023-04-09T03:43:41.288Z,16.15
2023-04-09T03:45:46.856Z,13.88
2023-04-09T03:47:58.872Z,14.57
2023-04-09T03:50:04.339Z,15.68
2023-04-09T03:52:22.251Z,15.98
2023-04-09T03:54:36.148Z,12.68
2023-04-09T03:56:47.366Z,14.27
2023-04-09T03:58:54.959Z,16.55
2023-04-09T04:01:05.415Z,13.43
2023-04-09T04:03:31.131Z,15.45
2023-04-09T04:05:50.805Z,13.95
2023-04-09T04:07:56.188Z,14.75
2023-04-09T04:10:07.320Z,13.63
2023-04-09T04:12:14.988Z,14.38
2023-04-09T04:14:31.584Z,13.18
2023-04-09T04:16:44.227Z,14.23
2023-04-09T04:18:52.493Z,14.63
2023-04-09T04:20:58.046Z,14.05
2023-04-09T04:23:03.013Z,14.15
2023-04-09T04:25:09.245Z,14.98
2023-04-09T04:27:16.917Z,15.07
2023-04-09T04:29:22.535Z,14.65
2023-04-09T04:31:33.921Z,14.38
2023-04-09T04:35:48.981Z,15.68
2023-04-09T04:38:27.293Z,17.50
2023-04-09T04:40:33.226Z,15.43
2023-04-09T04:42:42.520Z,15.23
2023-04-09T04:44:52.162Z,13.65
2023-04-09T04:47:19.590Z,14.05
2023-04-09T04:49:24.552Z,14.40
2023-04-09T04:51:30.391Z,13.43
2023-04-09T04:53:46.541Z,13.15
2023-04-09T04:55:52.737Z,13.02
2023-04-09T04:58:05.118Z,14.32
2023-04-09T05:00:19.415Z,14.93
2023-04-09T05:02:25.580Z,14.18
2023-04-09T05:04:53.005Z,12.63
2023-04-09T05:07:02.970Z,12.60
2023-04-09T05:11:20.058Z,14.20
2023-04-09T05:13:28.964Z,14.07
2023-04-09T05:15:33.970Z,13.68
2023-04-09T05:17:38.920Z,18.42
2023-04-09T05:19:45.586Z,13.15
2023-04-09T05:21:51.105Z,13.98
2023-04-09T05:23:59.923Z,12.65
2023-04-09T05:26:09.673Z,15.07
2023-04-09T05:28:29.477Z,13.70
2023-04-09T05:30:44.227Z,12.88
2023-04-09T05:32:50.406Z,13.10
2023-04-09T05:37:00.296Z,15.32
2023-04-09T05:39:05.828Z,14.02
2023-04-09T05:41:10.888Z,14.27
2023-04-09T05:43:29.343Z,13.95
2023-04-09T05:45:34.407Z,14.90
2023-04-09T05:47:39.339Z,14.73
2023-04-09T05:49:53.078Z,12.77
2023-04-09T05:51:57.984Z,15.52
2023-04-09T05:54:06.492Z,15.20
2023-04-09T05:56:18.318Z,16.85
2023-04-09T05:58:34.100Z,14.18
2023-04-09T06:00:40.063Z,14.68
2023-04-09T06:02:45.229Z,17.40
2023-04-09T06:06:55.866Z,15.07
2023-04-09T06:09:00.751Z,15.98
2023-04-09T06:11:07.995Z,15.88
2023-04-09T06:13:13.307Z,14.00
2023-04-09T06:15:21.647Z,15.43
2023-04-09T06:17:26.649Z,13.70
2023-04-09T06:19:31.667Z,14.80
2023-04-09T06:21:36.584Z,16.00
2023-04-09T06:23:41.588Z,13.85
2023-04-09T06:25:46.436Z,13.85
2023-04-09T06:27:51.368Z,14.38
2023-04-09T06:29:56.352Z,14.45
2023-04-09T06:32:04.021Z,15.80
2023-04-09T06:34:08.937Z,15.02
2023-04-09T06:36:14.252Z,14.52
2023-04-09T06:40:23.835Z,16.65
2023-04-09T06:42:28.859Z,17.10
2023-04-09T06:44:47.527Z,16.90
2023-04-09T06:46:52.559Z,16.35
2023-04-09T06:49:00.653Z,15.55
2023-04-09T06:51:05.766Z,18.65
2023-04-09T06:53:10.685Z,16.13
2023-04-09T06:55:15.693Z,14.90
2023-04-09T06:57:20.697Z,17.38
2023-04-09T06:59:25.581Z,15.23
2023-04-09T07:01:30.628Z,20.88
2023-04-09T07:03:35.913Z,19.15
2023-04-09T07:07:48.253Z,18.65
2023-04-09T07:09:56.612Z,21.58
2023-04-09T07:12:01.583Z,20.23
2023-04-09T07:14:06.504Z,19.40
2023-04-09T07:16:11.603Z,20.88
2023-04-09T07:18:16.490Z,19.73
2023-04-09T07:20:21.635Z,21.38
2023-04-09T07:24:34.591Z,18.15
2023-04-09T07:26:39.466Z,20.00
2023-04-09T07:28:44.412Z,17.33
2023-04-09T07:30:49.382Z,21.40
2023-04-09T07:32:55.318Z,17.77
2023-04-09T07:35:02.573Z,18.00
2023-04-09T07:37:07.598Z,16.40
2023-04-09T07:39:15.172Z,20.48
2023-04-09T07:41:20.178Z,17.00
2023-04-09T07:43:25.068Z,17.65
2023-04-09T07:45:30.038Z,18.92
2023-04-09T07:47:35.495Z,18.60
2023-04-09T07:49:40.518Z,19.70
2023-04-09T07:51:46.208Z,17.33
2023-04-09T07:53:51.223Z,16.75
2023-04-09T07:55:58.828Z,17.23
2023-04-09T07:58:04.388Z,18.48
2023-04-09T08:00:11.015Z,19.25
2023-04-09T08:02:18.744Z,18.42
2023-04-09T08:04:23.806Z,16.45
2023-04-09T08:06:29.006Z,19.02
2023-04-09T08:10:38.753Z,17.52
2023-04-09T08:12:46.335Z,15.68
2023-04-09T08:14:51.245Z,15.60
2023-04-09T08:16:56.652Z,17.77
2023-04-09T08:19:01.595Z,18.35
2023-04-09T08:21:08.667Z,16.17
2023-04-09T08:23:13.640Z,16.63
2023-04-09T08:25:18.548Z,16.92
2023-04-09T08:27:23.526Z,17.75
2023-04-09T08:29:32.258Z,15.55
2023-04-09T08:31:38.179Z,16.98
2023-04-09T08:33:43.095Z,15.68
2023-04-09T08:35:48.084Z,15.55
2023-04-09T08:37:52.912Z,14.98
2023-04-09T08:39:57.860Z,15.10
2023-04-09T08:42:03.883Z,14.65
2023-04-09T08:44:08.873Z,13.93
2023-04-09T08:46:16.774Z,13.60
2023-04-09T08:48:23.073Z,14.75
2023-04-09T08:50:28.031Z,11.98
2023-04-09T08:52:35.355Z,11.85
2023-04-09T08:54:40.541Z,12.88
2023-04-09T08:58:51.947Z,14.00
2023-04-09T09:00:57.395Z,12.75
2023-04-09T09:05:14.010Z,11.73
2023-04-09T09:07:19.926Z,12.80
2023-04-09T09:09:25.086Z,12.13
2023-04-09T09:13:35.534Z,12.05
2023-04-09T09:15:40.697Z,14.85
2023-04-09T09:17:57.105Z,12.38
2023-04-09T09:20:22.627Z,11.65
2023-04-09T09:22:28.394Z,12.43
2023-04-09T09:24:34.215Z,11.85
2023-04-09T09:26:41.830Z,13.93
2023-04-09T09:28:47.431Z,12.07
2023-04-09T09:30:52.733Z,12.52
2023-04-09T09:35:09.250Z,11.93
2023-04-09T09:37:29.667Z,12.88
2023-04-09T09:39:47.180Z,12.73
2023-04-09T09:42:09.532Z,11.70
2023-04-09T09:44:15.773Z,11.10
2023-04-09T09:46:21.064Z,12.52
2023-04-09T09:48:28.348Z,11.93
2023-04-09T09:50:38.338Z,10.32
2023-04-09T09:52:47.828Z,11.50
2023-04-09T09:54:56.075Z,10.75
2023-04-09T09:57:07.661Z,10.90
2023-04-09T09:59:22.918Z,11.52
2023-04-09T10:01:31.071Z,11.38
2023-04-09T10:03:38.617Z,12.00
2023-04-09T10:05:48.124Z,13.15
2023-04-09T10:07:52.993Z,12.95
2023-04-09T10:10:00.287Z,12.23
2023-04-09T10:12:07.824Z,11.15
2023-04-09T10:14:13.105Z,10.27
2023-04-09T10:18:24.156Z,11.65
2023-04-09T10:20:35.603Z,13.45
2023-04-09T10:22:46.082Z,10.75
2023-04-09T10:24:51.555Z,9.60
2023-04-09T10:26:58.500Z,11.30
2023-04-09T10:29:08.842Z,10.68
2023-04-09T10:31:14.051Z,12.60
2023-04-09T10:35:28.545Z,10.95
2023-04-09T10:37:33.519Z,12.15
2023-04-09T10:39:44.311Z,14.02
2023-04-09T10:41:51.770Z,11.73
2023-04-09T10:43:56.967Z,10.90
2023-04-09T10:48:07.952Z,10.10
2023-04-09T10:50:24.228Z,11.52
2023-04-09T10:52:35.268Z,10.90
2023-04-09T10:54:49.345Z,10.88
2023-04-09T10:57:29.788Z,8.80
2023-04-09T10:59:34.693Z,9.40
2023-04-09T11:01:39.613Z,10.27
2023-04-09T11:03:48.029Z,10.18
2023-04-09T11:05:56.890Z,8.60
2023-04-09T11:08:07.659Z,7.72
2023-04-09T11:10:15.521Z,8.38
2023-04-09T11:12:20.435Z,9.50
2023-04-09T11:14:25.962Z,8.40
2023-04-09T11:16:32.759Z,9.73
2023-04-09T11:18:37.981Z,7.90
2023-04-09T11:20:43.482Z,7.13
2023-04-09T11:22:48.397Z,7.45
2023-04-09T11:24:53.741Z,7.10
2023-04-09T11:27:02.204Z,6.97
2023-04-09T11:29:09.470Z,7.32
2023-04-09T11:31:14.705Z,7.10
2023-04-09T11:33:20.434Z,7.53
2023-04-09T11:35:26.386Z,6.32
2023-04-09T11:37:31.427Z,5.93
2023-04-09T11:39:39.711Z,6.40
2023-04-09T11:41:44.671Z,7.13
2023-04-09T11:43:55.217Z,6.90
2023-04-09T11:46:00.553Z,6.28
2023-04-09T11:48:05.882Z,6.07
2023-04-09T11:50:12.510Z,7.05
2023-04-09T11:52:17.785Z,6.00
2023-04-09T11:54:22.672Z,4.97
2023-04-09T11:56:27.736Z,6.35
2023-04-09T11:58:32.644Z,5.72
2023-04-09T12:00:43.625Z,6.40
2023-04-09T12:02:49.988Z,5.57
2023-04-09T12:04:55.308Z,5.60
2023-04-09T12:07:01.339Z,8.13
2023-04-09T12:09:06.442Z,5.97
2023-04-09T12:13:19.861Z,5.85
2023-04-09T12:15:27.388Z,6.00
2023-04-09T12:17:35.215Z,5.82
2023-04-09T12:19:40.210Z,5.88
2023-04-09T12:21:53.132Z,5.97
2023-04-09T12:23:58.003Z,6.38
2023-04-09T12:26:03.238Z,5.43
2023-04-09T12:28:09.357Z,6.65
2023-04-09T12:30:14.623Z,5.93
2023-04-09T12:32:19.656Z,7.05
2023-04-09T12:34:27.507Z,6.05
2023-04-09T12:36:32.533Z,6.57
2023-04-09T12:38:37.423Z,5.70
2023-04-09T12:40:44.445Z,7.88
2023-04-09T12:42:50.151Z,5.35
2023-04-09T12:44:55.057Z,6.10
2023-04-09T12:47:00.068Z,5.85
2023-04-09T12:49:05.935Z,5.20
2023-04-09T12:51:14.895Z,6.22
2023-04-09T12:53:19.834Z,5.32
2023-04-09T12:55:24.936Z,5.90
2023-04-09T12:59:36.958Z,7.32
2023-04-09T13:01:44.654Z,6.13
2023-04-09T13:03:49.801Z,7.32
2023-04-09T13:05:54.796Z,6.43
2023-04-09T13:08:04.738Z,6.43
2023-04-09T13:10:10.628Z,6.50
2023-04-09T13:12:16.212Z,7.30
2023-04-09T13:14:21.160Z,6.47
2023-04-09T13:16:27.628Z,6.15
2023-04-09T13:18:32.581Z,6.43
2023-04-09T13:20:37.466Z,5.72
2023-04-09T13:22:42.669Z,5.57
2023-04-09T13:26:55.317Z,6.15
2023-04-09T13:31:05.572Z,7.45
2023-04-09T13:33:10.677Z,6.47
2023-04-09T13:37:21.748Z,6.78
2023-04-09T13:39:26.841Z,5.93
2023-04-09T13:41:39.349Z,5.35
2023-04-09T13:43:47.863Z,6.38
2023-04-09T13:45:54.186Z,6.15
2023-04-09T13:48:01.249Z,7.28
2023-04-09T13:50:13.290Z,7.70
2023-04-09T13:52:18.345Z,15.13
2023-04-09T13:54:23.233Z,10.30
2023-04-09T13:56:28.800Z,6.82
2023-04-09T13:58:36.446Z,5.32
2023-04-09T14:00:41.672Z,5.75
2023-04-09T14:02:46.800Z,6.03
2023-04-09T14:06:57.615Z,6.05
2023-04-09T14:09:05.220Z,5.97
2023-04-09T14:11:14.084Z,6.15
2023-04-09T14:13:19.052Z,6.35
2023-04-09T14:15:26.792Z,5.93
2023-04-09T14:17:32.239Z,5.72
2023-04-09T14:19:37.170Z,5.93
2023-04-09T14:21:42.761Z,6.07
2023-04-09T14:23:47.711Z,5.38
2023-04-09T14:25:53.600Z,7.45
2023-04-09T14:27:59.223Z,6.80
2023-04-09T14:30:05.250Z,6.80
2023-04-09T14:32:12.774Z,6.57
2023-04-09T14:34:17.968Z,5.97
2023-04-09T14:38:27.814Z,7.00
2023-04-09T14:40:35.311Z,7.35
2023-04-09T14:42:40.222Z,8.73
2023-04-09T14:44:45.156Z,7.72
2023-04-09T14:46:50.229Z,7.30
2023-04-09T14:48:57.796Z,7.18
2023-04-09T14:51:02.745Z,7.35
2023-04-09T14:53:09.421Z,7.43
2023-04-09T14:55:14.955Z,6.45
2023-04-09T14:57:19.825Z,6.50
2023-04-09T14:59:24.762Z,8.32
2023-04-09T15:01:31.289Z,7.43
2023-04-09T15:04:22.945Z,6.68
2023-04-09T15:06:32.453Z,5.57
2023-04-09T15:08:37.338Z,6.70
2023-04-09T15:10:44.770Z,5.68
2023-04-09T15:12:49.987Z,6.18
2023-04-09T15:14:55.013Z,5.18
2023-04-09T15:16:59.984Z,5.55
2023-04-09T15:19:05.285Z,6.18
2023-04-09T15:23:20.691Z,6.50
2023-04-09T15:25:25.693Z,5.38
2023-04-09T15:27:30.681Z,5.95
2023-04-09T15:29:36.431Z,5.70
2023-04-09T15:31:41.697Z,6.30
2023-04-09T15:33:47.350Z,6.30
2023-04-09T15:35:52.373Z,6.68
2023-04-09T15:40:04.827Z,6.30
2023-04-09T15:42:11.118Z,5.13
2023-04-09T15:44:39.708Z,7.32
2023-04-09T15:46:44.649Z,6.47
2023-04-09T15:48:49.636Z,7.18
2023-04-09T15:50:54.657Z,7.57
2023-04-09T15:52:59.682Z,6.03
2023-04-09T15:55:10.527Z,6.80
2023-04-09T15:57:15.504Z,7.85
2023-04-09T15:59:20.916Z,6.93
2023-04-09T16:01:26.181Z,6.80
2023-04-09T16:05:40.553Z,7.13
2023-04-09T16:07:45.527Z,6.63
2023-04-09T16:09:50.593Z,7.32
2023-04-09T16:11:58.477Z,6.40
2023-04-09T16:14:03.643Z,6.25
2023-04-09T16:18:14.120Z,7.97
2023-04-09T16:20:19.636Z,6.25
2023-04-09T16:22:24.666Z,6.80
2023-04-09T16:24:30.925Z,6.85
2023-04-09T16:26:35.840Z,5.72
2023-04-09T16:28:43.399Z,6.53
2023-04-09T16:30:48.312Z,5.57
2023-04-09T16:32:53.497Z,7.30
2023-04-09T16:35:00.865Z,6.25
2023-04-09T16:37:05.775Z,5.88
2023-04-09T16:39:11.117Z,6.38
2023-04-09T16:41:16.013Z,7.40
2023-04-09T16:43:20.996Z,6.07
2023-04-09T16:45:29.768Z,6.80
2023-04-09T16:47:34.947Z,5.80
2023-04-09T16:49:40.049Z,5.63
2023-04-09T16:51:46.315Z,6.75
2023-04-09T16:53:51.246Z,8.35
2023-04-09T16:55:56.321Z,6.78
2023-04-09T16:58:01.329Z,8.07
2023-04-09T17:00:07.627Z,8.30
2023-04-09T17:02:15.194Z,8.32
2023-04-09T17:04:20.447Z,7.38
2023-04-09T17:06:25.398Z,7.85
2023-04-09T17:08:30.399Z,9.60
2023-04-09T17:10:35.545Z,7.85
2023-04-09T17:14:45.572Z,8.23
2023-04-09T17:18:57.894Z,7.97
2023-04-09T17:21:03.052Z,7.97
2023-04-09T17:25:16.131Z,8.43
2023-04-09T17:27:21.182Z,8.45
2023-04-09T17:31:30.823Z,7.50
2023-04-09T17:33:35.750Z,9.10
2023-04-09T17:35:45.026Z,9.48
2023-04-09T17:37:50.018Z,9.40
2023-04-09T17:39:54.906Z,8.57
2023-04-09T17:42:01.891Z,8.15
2023-04-09T17:44:07.095Z,7.90
2023-04-09T17:48:18.094Z,8.40
2023-04-09T17:50:23.197Z,9.68
2023-04-09T17:52:36.792Z,9.30
2023-04-09T17:54:45.538Z,9.15
2023-04-09T17:56:50.556Z,9.63
2023-04-09T17:58:55.681Z,8.98
2023-04-09T18:01:01.091Z,11.30
2023-04-09T18:03:09.448Z,9.82
2023-04-09T18:05:17.146Z,9.88
2023-04-09T18:07:22.296Z,8.40
2023-04-09T18:11:54.947Z,8.93
2023-04-09T18:14:01.208Z,9.23
2023-04-09T18:16:06.436Z,8.73
2023-04-09T18:18:11.696Z,9.85
2023-04-09T18:22:21.644Z,12.38
2023-04-09T18:24:29.529Z,10.73
2023-04-09T18:26:34.768Z,9.80
2023-04-09T18:30:45.090Z,8.75
2023-04-09T18:32:51.895Z,8.65
2023-04-09T18:34:57.162Z,9.57
2023-04-09T18:37:02.186Z,12.43
2023-04-09T18:39:09.752Z,12.80
2023-04-09T18:41:24.902Z,9.02
2023-04-09T18:43:29.907Z,8.60
2023-04-09T18:45:34.803Z,10.73
2023-04-09T18:47:40.757Z,10.95
2023-04-09T18:49:45.800Z,10.88
2023-04-09T18:51:50.780Z,9.55
2023-04-09T18:53:56.155Z,9.13
2023-04-09T18:58:12.710Z,10.70
2023-04-09T19:00:18.089Z,9.73
2023-04-09T19:04:30.589Z,13.73
2023-04-09T19:06:36.619Z,9.88
2023-04-09T19:08:41.824Z,8.82
2023-04-09T19:12:54.141Z,8.63
2023-04-09T19:15:04.736Z,9.32
2023-04-09T19:17:09.853Z,8.77
2023-04-09T19:19:14.937Z,11.90
2023-04-09T19:21:19.964Z,10.13
2023-04-09T19:23:24.959Z,8.88
2023-04-09T19:25:30.144Z,9.20
2023-04-09T19:27:35.036Z,10.05
2023-04-09T19:29:40.014Z,11.90
2023-04-09T19:31:47.662Z,10.93
2023-04-09T19:33:52.730Z,10.32
2023-04-09T19:35:58.602Z,10.00
2023-04-09T19:38:04.969Z,10.63
2023-04-09T19:40:11.809Z,10.98
2023-04-09T19:42:16.772Z,9.98
2023-04-09T19:44:22.120Z,11.75
2023-04-09T19:48:34.425Z,9.50
2023-04-09T19:50:41.141Z,10.07
2023-04-09T19:52:46.286Z,10.77
2023-04-09T19:56:56.244Z,10.63
2023-04-09T19:59:01.186Z,10.43
2023-04-09T20:01:06.326Z,9.35
2023-04-09T20:03:11.588Z,9.60
2023-04-09T20:07:27.407Z,11.02
2023-04-09T20:09:32.495Z,10.52
2023-04-09T20:11:37.472Z,10.80
2023-04-09T20:13:42.344Z,9.70
2023-04-09T20:15:47.496Z,12.88
2023-04-09T20:17:53.740Z,9.57
2023-04-09T20:19:58.784Z,10.32
2023-04-09T20:22:06.296Z,9.80
2023-04-09T20:24:11.580Z,9.65
2023-04-09T20:26:16.556Z,10.43
2023-04-09T20:28:22.121Z,9.57
2023-04-09T20:30:27.102Z,9.52
2023-04-09T20:32:32.655Z,12.77
2023-04-09T20:34:37.793Z,10.85
2023-04-09T20:36:44.062Z,11.52
2023-04-09T20:38:51.767Z,12.38
2023-04-09T20:40:56.915Z,10.65
2023-04-09T20:43:01.932Z,12.13
2023-04-09T20:45:07.902Z,11.73
2023-04-09T20:47:13.189Z,11.48
2023-04-09T20:49:18.289Z,11.10
2023-04-09T20:51:23.171Z,11.88
2023-04-09T20:53:28.840Z,10.63
2023-04-09T20:55:37.241Z,11.70
2023-04-09T20:57:42.600Z,12.23
2023-04-09T21:01:54.086Z,11.55
2023-04-09T21:03:59.135Z,10.13
2023-04-09T21:06:04.187Z,10.98
2023-04-09T21:08:14.727Z,11.82
2023-04-09T21:10:19.815Z,15.00
2023-04-09T21:12:28.188Z,14.73
2023-04-09T21:14:33.771Z,12.75
2023-04-09T21:16:39.534Z,14.40
2023-04-09T21:18:45.060Z,14.18
2023-04-09T21:20:50.543Z,12.75
2023-04-09T21:22:56.370Z,12.00
2023-04-09T21:25:03.341Z,12.35
2023-04-09T21:27:08.389Z,15.00
2023-04-09T21:29:15.915Z,10.57
2023-04-09T21:31:20.928Z,13.30
2023-04-09T21:33:27.524Z,10.35
2023-04-09T21:35:34.462Z,10.07
2023-04-09T21:37:39.920Z,13.88
2023-04-09T21:39:44.946Z,12.70
2023-04-09T21:41:49.813Z,13.63
2023-04-09T21:43:54.793Z,12.43
2023-04-09T21:46:03.226Z,10.88
2023-04-09T21:48:09.349Z,12.05
2023-04-09T21:50:15.760Z,12.70
2023-04-09T21:52:20.702Z,12.15
2023-04-09T21:54:25.571Z,12.00
2023-04-09T21:56:30.580Z,12.40
2023-04-09T21:58:35.570Z,13.68
2023-04-09T22:00:40.865Z,13.30
2023-04-09T22:02:48.931Z,11.95
2023-04-09T22:04:54.317Z,13.55
2023-04-09T22:06:59.342Z,13.05
2023-04-09T22:09:04.724Z,12.68
2023-04-09T22:11:10.378Z,13.82
2023-04-09T22:15:20.234Z,12.30
2023-04-09T22:17:25.273Z,12.45
2023-04-09T22:19:34.201Z,12.88
2023-04-09T22:21:39.138Z,13.73
2023-04-09T22:23:44.055Z,14.77
2023-04-09T22:25:48.938Z,13.20
2023-04-09T22:27:55.025Z,14.93
2023-04-09T22:30:03.006Z,15.65
2023-04-09T22:32:08.112Z,15.13
2023-04-09T22:34:20.644Z,13.90
2023-04-09T22:36:30.067Z,14.48
2023-04-09T22:38:35.025Z,12.30
2023-04-09T22:40:40.285Z,12.30
2023-04-09T22:42:45.912Z,13.40
2023-04-09T22:44:51.073Z,15.75
2023-04-09T22:46:56.004Z,14.63
2023-04-09T22:49:05.032Z,12.82
2023-04-09T22:51:10.827Z,16.05
2023-04-09T22:53:21.884Z,13.40
2023-04-09T22:55:27.599Z,13.90
2023-04-09T22:57:32.887Z,13.07
2023-04-09T23:01:49.175Z,15.30
2023-04-09T23:03:54.275Z,14.77
2023-04-09T23:05:59.208Z,18.60
2023-04-09T23:08:04.200Z,16.88
2023-04-09T23:10:14.431Z,18.05
2023-04-09T23:12:19.331Z,18.90
2023-04-09T23:14:24.203Z,19.00
2023-04-09T23:16:29.164Z,16.60
2023-04-09T23:18:34.093Z,17.90
2023-04-09T23:20:39.483Z,18.10
2023-04-09T23:22:44.648Z,17.83
2023-04-09T23:26:56.883Z,19.13
2023-04-09T23:29:01.993Z,18.45
2023-04-09T23:31:07.197Z,19.58
2023-04-09T23:35:17.420Z,17.25
2023-04-09T23:37:22.374Z,17.67
2023-04-09T23:39:27.237Z,19.88
2023-04-09T23:41:32.198Z,20.48
2023-04-09T23:43:40.163Z,20.13
2023-04-09T23:45:46.302Z,22.17
2023-04-09T23:47:51.666Z,19.23
2023-04-09T23:49:56.592Z,20.40
2023-04-09T23:52:01.538Z,20.65
2023-04-09T23:54:07.084Z,17.98
2023-04-09T23:56:12.233Z,16.88
2023-04-09T23:58:17.882Z,17.27
